createdAt,value
2017-06-12T00:00:05.566Z,1025.47
2017-06-12T00:01:05.566Z,1025.47
2017-06-12T00:02:05.565Z,1025.49
2017-06-12T00:03:05.564Z,1025.5
2017-06-12T00:04:05.563Z,1025.47
2017-06-12T00:05:05.565Z,1025.48
2017-06-12T00:06:05.562Z,1025.5
2017-06-12T00:07:05.560Z,1025.45
2017-06-12T00:08:05.559Z,1025.45
2017-06-12T00:09:05.559Z,1025.46
2017-06-12T00:10:05.558Z,1025.43
2017-06-12T00:11:05.559Z,1025.43
2017-06-12T00:12:05.556Z,1025.38
2017-06-12T00:13:05.555Z,1025.33
2017-06-12T00:14:05.554Z,1025.28
2017-06-12T00:15:05.553Z,1025.21
2017-06-12T00:16:05.552Z,1025.19
2017-06-12T00:17:05.551Z,1025.16
2017-06-12T00:18:05.553Z,1025.11
2017-06-12T00:19:05.550Z,1025.09
2017-06-12T00:20:05.549Z,1025.02
2017-06-12T00:21:05.548Z,1024.93
2017-06-12T00:22:05.546Z,1024.81
2017-06-12T00:23:05.546Z,1024.75
2017-06-12T00:24:05.545Z,1024.73
2017-06-12T00:25:05.544Z,1024.73
2017-06-12T00:26:05.543Z,1024.76
2017-06-12T00:27:05.542Z,1024.74
2017-06-12T00:28:05.543Z,1024.74
2017-06-12T00:29:05.540Z,1024.73
2017-06-12T00:30:05.539Z,1024.76
2017-06-12T00:31:05.538Z,1024.79
2017-06-12T00:32:05.538Z,1024.79
2017-06-12T00:33:05.536Z,1024.8
2017-06-12T00:34:05.536Z,1024.79
2017-06-12T00:35:05.537Z,1024.79
2017-06-12T00:36:05.533Z,1024.73
2017-06-12T00:37:05.532Z,1024.78
2017-06-12T00:38:05.532Z,1024.74
2017-06-12T00:39:05.531Z,1024.71
2017-06-12T00:40:05.530Z,1024.68
2017-06-12T00:41:05.529Z,1024.67
2017-06-12T00:42:05.528Z,1024.59
2017-06-12T00:43:05.547Z,1024.57
2017-06-12T00:44:05.526Z,1024.66
2017-06-12T00:45:05.526Z,1024.71
2017-06-12T00:46:05.524Z,1024.73
2017-06-12T00:47:05.524Z,1024.78
2017-06-12T00:48:05.523Z,1024.82
2017-06-12T00:49:05.522Z,1024.87
2017-06-12T00:50:05.521Z,1024.87
2017-06-12T00:51:05.519Z,1024.92
2017-06-12T00:52:05.518Z,1024.91
2017-06-12T00:53:05.518Z,1024.91
2017-06-12T00:54:05.517Z,1024.91
2017-06-12T00:55:05.516Z,1024.91
2017-06-12T00:56:05.515Z,1024.92
2017-06-12T00:57:05.515Z,1024.92
2017-06-12T00:58:05.513Z,1024.92
2017-06-12T00:59:05.512Z,1024.92
2017-06-12T01:00:05.511Z,1024.89
2017-06-12T01:01:05.511Z,1024.87
2017-06-12T01:02:05.509Z,1024.78
2017-06-12T01:03:05.508Z,1024.71
2017-06-12T01:04:05.507Z,1024.64
2017-06-12T01:05:05.508Z,1024.58
2017-06-12T01:06:05.505Z,1024.57
2017-06-12T01:07:05.504Z,1024.56
2017-06-12T01:08:05.503Z,1024.59
2017-06-12T01:09:05.503Z,1024.58
2017-06-12T01:10:05.501Z,1024.61
2017-06-12T01:11:05.500Z,1024.65
2017-06-12T01:12:05.499Z,1024.64
2017-06-12T01:13:05.498Z,1024.69
2017-06-12T01:14:05.497Z,1024.69
2017-06-12T01:15:05.497Z,1024.72
2017-06-12T01:16:05.496Z,1024.66
2017-06-12T01:17:05.494Z,1024.65
2017-06-12T01:18:05.494Z,1024.62
2017-06-12T01:19:05.492Z,1024.61
2017-06-12T01:20:05.492Z,1024.6
2017-06-12T01:21:05.490Z,1024.62
2017-06-12T01:22:05.488Z,1024.57
2017-06-12T01:23:05.491Z,1024.57
2017-06-12T01:24:05.486Z,1024.58
2017-06-12T01:25:05.486Z,1024.54
2017-06-12T01:26:05.485Z,1024.49
2017-06-12T01:27:05.484Z,1024.46
2017-06-12T01:28:05.482Z,1024.44
2017-06-12T01:29:05.481Z,1024.48
2017-06-12T01:30:05.480Z,1024.47
2017-06-12T01:31:05.480Z,1024.48
2017-06-12T01:32:05.479Z,1024.45
2017-06-12T01:33:05.478Z,1024.37
2017-06-12T01:34:05.478Z,1024.31
2017-06-12T01:35:05.476Z,1024.31
2017-06-12T01:36:05.474Z,1024.33
2017-06-12T01:37:05.474Z,1024.37
2017-06-12T01:38:05.473Z,1024.43
2017-06-12T01:39:05.472Z,1024.45
2017-06-12T01:40:05.471Z,1024.44
2017-06-12T01:41:05.470Z,1024.46
2017-06-12T01:42:05.468Z,1024.52
2017-06-12T01:43:05.467Z,1024.53
2017-06-12T01:44:05.467Z,1024.57
2017-06-12T01:45:05.466Z,1024.59
2017-06-12T01:46:05.463Z,1024.63
2017-06-12T01:47:05.463Z,1024.58
2017-06-12T01:48:05.462Z,1024.63
2017-06-12T01:49:05.461Z,1024.56
2017-06-12T01:50:05.459Z,1024.48
2017-06-12T01:51:05.458Z,1024.45
2017-06-12T01:52:05.457Z,1024.39
2017-06-12T01:53:05.456Z,1024.37
2017-06-12T01:54:05.454Z,1024.4
2017-06-12T01:55:05.454Z,1024.4
2017-06-12T01:56:05.451Z,1024.37
2017-06-12T01:57:05.452Z,1024.34
2017-06-12T01:58:05.449Z,1024.34
2017-06-12T01:59:05.450Z,1024.31
2017-06-12T02:00:05.447Z,1024.28
2017-06-12T02:01:05.446Z,1024.23
2017-06-12T02:02:05.445Z,1024.22
2017-06-12T02:03:05.444Z,1024.18
2017-06-12T02:04:05.442Z,1024.17
2017-06-12T02:05:05.441Z,1024.18
2017-06-12T02:06:05.440Z,1024.18
2017-06-12T02:07:05.440Z,1024.18
2017-06-12T02:08:05.436Z,1024.16
2017-06-12T02:09:05.436Z,1024.12
2017-06-12T02:10:05.437Z,1024.15
2017-06-12T02:11:05.434Z,1024.11
2017-06-12T02:12:05.433Z,1024.11
2017-06-12T02:13:05.431Z,1024.1
2017-06-12T02:14:05.432Z,1024.1
2017-06-12T02:15:05.429Z,1024.11
2017-06-12T02:16:05.428Z,1024.12
2017-06-12T02:17:05.427Z,1024.14
2017-06-12T02:18:05.426Z,1024.17
2017-06-12T02:19:05.424Z,1024.17
2017-06-12T02:20:05.422Z,1024.1
2017-06-12T02:21:05.422Z,1024.12
2017-06-12T02:22:05.423Z,1024.13
2017-06-12T02:23:05.420Z,1024.13
2017-06-12T02:24:05.418Z,1024.15
2017-06-12T02:25:05.417Z,1024.1
2017-06-12T02:26:05.415Z,1024.12
2017-06-12T02:27:05.415Z,1024.11
2017-06-12T02:28:05.415Z,1024.1
2017-06-12T02:29:05.413Z,1024.11
2017-06-12T02:30:05.411Z,1024.08
2017-06-12T02:31:05.410Z,1024.14
2017-06-12T02:32:05.408Z,1024.12
2017-06-12T02:33:05.411Z,1024.13
2017-06-12T02:34:05.405Z,1024.12
2017-06-12T02:35:05.405Z,1024.12
2017-06-12T02:36:05.403Z,1024.13
2017-06-12T02:37:05.402Z,1024.12
2017-06-12T02:38:05.402Z,1024.06
2017-06-12T02:39:05.399Z,1024.04
2017-06-12T02:40:05.399Z,1024.01
2017-06-12T02:41:05.396Z,1024.03
2017-06-12T02:42:05.396Z,1024.05
2017-06-12T02:43:05.394Z,1024.01
2017-06-12T02:44:05.392Z,1024.04
2017-06-12T02:45:05.391Z,1024.05
2017-06-12T02:46:05.390Z,1024.03
2017-06-12T02:47:05.389Z,1024.04
2017-06-12T02:48:05.387Z,1024.07
2017-06-12T02:49:05.386Z,1024.07
2017-06-12T02:50:05.385Z,1024.05
2017-06-12T02:51:05.384Z,1024.03
2017-06-12T02:52:05.381Z,1024.01
2017-06-12T02:53:05.380Z,1023.96
2017-06-12T02:54:05.382Z,1023.94
2017-06-12T02:55:05.378Z,1023.93
2017-06-12T02:56:05.379Z,1023.94
2017-06-12T02:57:05.374Z,1023.91
2017-06-12T02:58:05.375Z,1023.93
2017-06-12T02:59:05.371Z,1023.93
2017-06-12T03:00:05.370Z,1023.88
2017-06-12T03:01:05.369Z,1023.9
2017-06-12T03:02:05.367Z,1023.92
2017-06-12T03:03:05.365Z,1023.91
2017-06-12T03:04:05.364Z,1023.89
2017-06-12T03:05:05.363Z,1023.91
2017-06-12T03:06:05.362Z,1023.88
2017-06-12T03:07:05.361Z,1023.88
2017-06-12T03:08:05.361Z,1023.82
2017-06-12T03:09:05.360Z,1023.85
2017-06-12T03:10:05.356Z,1023.81
2017-06-12T03:11:05.356Z,1023.76
2017-06-12T03:12:05.355Z,1023.74
2017-06-12T03:13:05.354Z,1023.7
2017-06-12T03:14:05.352Z,1023.66
2017-06-12T03:15:05.351Z,1023.67
2017-06-12T03:16:05.350Z,1023.65
2017-06-12T03:17:05.348Z,1023.62
2017-06-12T03:18:05.347Z,1023.59
2017-06-12T03:19:05.346Z,1023.56
2017-06-12T03:20:05.347Z,1023.64
2017-06-12T03:21:05.342Z,1023.59
2017-06-12T03:22:05.342Z,1023.62
2017-06-12T03:23:05.340Z,1023.68
2017-06-12T03:24:05.340Z,1023.66
2017-06-12T03:25:05.338Z,1023.67
2017-06-12T03:26:05.336Z,1023.7
2017-06-12T03:27:05.336Z,1023.73
2017-06-12T03:28:05.334Z,1023.65
2017-06-12T03:29:05.333Z,1023.66
2017-06-12T03:30:05.332Z,1023.68
2017-06-12T03:31:05.332Z,1023.66
2017-06-12T03:32:05.329Z,1023.62
2017-06-12T03:33:05.327Z,1023.59
2017-06-12T03:34:05.326Z,1023.56
2017-06-12T03:35:05.326Z,1023.53
2017-06-12T03:36:05.324Z,1023.51
2017-06-12T03:37:05.324Z,1023.44
2017-06-12T03:38:05.322Z,1023.49
2017-06-12T03:39:05.320Z,1023.52
2017-06-12T03:40:05.319Z,1023.48
2017-06-12T03:41:05.319Z,1023.45
2017-06-12T03:42:05.318Z,1023.38
2017-06-12T03:43:05.316Z,1023.33
2017-06-12T03:44:05.317Z,1023.32
2017-06-12T03:45:05.314Z,1023.32
2017-06-12T03:46:05.313Z,1023.36
2017-06-12T03:47:05.312Z,1023.37
2017-06-12T03:48:05.310Z,1023.43
2017-06-12T03:49:05.310Z,1023.36
2017-06-12T03:50:05.309Z,1023.31
2017-06-12T03:51:05.307Z,1023.28
2017-06-12T03:52:05.307Z,1023.29
2017-06-12T03:53:05.306Z,1023.38
2017-06-12T03:54:05.304Z,1023.4
2017-06-12T03:55:05.303Z,1023.35
2017-06-12T03:56:05.303Z,1023.27
2017-06-12T03:57:05.302Z,1023.26
2017-06-12T03:58:05.300Z,1023.22
2017-06-12T03:59:05.300Z,1023.16
2017-06-12T04:00:05.299Z,1023.17
2017-06-12T04:01:05.299Z,1023.19
2017-06-12T04:02:05.397Z,1023.21
2017-06-12T04:03:05.296Z,1023.14
2017-06-12T04:04:05.296Z,1023.1
2017-06-12T04:05:05.295Z,1022.94
2017-06-12T04:06:05.295Z,1022.91
2017-06-12T04:07:05.293Z,1022.91
2017-06-12T04:08:05.293Z,1022.89
2017-06-12T04:09:05.291Z,1022.95
2017-06-12T04:10:05.291Z,1022.91
2017-06-12T04:11:05.291Z,1022.86
2017-06-12T04:12:05.289Z,1022.79
2017-06-12T04:13:05.289Z,1022.63
2017-06-12T04:14:05.288Z,1022.55
2017-06-12T04:15:05.289Z,1022.44
2017-06-12T04:16:05.287Z,1022.41
2017-06-12T04:17:05.287Z,1022.05
2017-06-12T04:18:05.286Z,1021.94
2017-06-12T04:19:05.287Z,1021.91
2017-06-12T04:20:05.286Z,1021.9
2017-06-12T04:21:05.286Z,1021.92
2017-06-12T04:22:05.286Z,1021.94
2017-06-12T04:23:05.286Z,1021.92
2017-06-12T04:24:05.286Z,1022.01
2017-06-12T04:25:05.287Z,1021.88
2017-06-12T04:26:05.287Z,1021.5
2017-06-12T04:27:05.287Z,1021.28
2017-06-12T04:28:05.287Z,1021.35
2017-06-12T04:29:05.289Z,1021.14
2017-06-12T04:30:05.288Z,1020.71
2017-06-12T04:31:05.290Z,1020.91
2017-06-12T04:32:05.291Z,1020.75
2017-06-12T04:33:05.293Z,1020.48
2017-06-12T04:34:05.293Z,1020.27
2017-06-12T04:35:05.297Z,1020.41
2017-06-12T04:36:05.298Z,1020.48
2017-06-12T04:37:05.299Z,1020.62
2017-06-12T04:38:05.299Z,1020.73
2017-06-12T04:39:05.303Z,1020.83
2017-06-12T04:40:05.306Z,1020.85
2017-06-12T04:41:05.308Z,1020.91
2017-06-12T04:42:05.310Z,1021.03
2017-06-12T04:43:05.314Z,1021.12
2017-06-12T04:44:05.316Z,1021.18
2017-06-12T04:45:05.317Z,1021.34
2017-06-12T04:46:05.320Z,1021.53
2017-06-12T04:47:05.323Z,1021.59
2017-06-12T04:48:05.327Z,1021.65
2017-06-12T04:49:05.327Z,1021.59
2017-06-12T04:50:05.329Z,1021.53
2017-06-12T04:51:05.331Z,1021.6
2017-06-12T04:52:05.333Z,1021.66
2017-06-12T04:53:05.336Z,1021.72
2017-06-12T04:54:05.338Z,1021.74
2017-06-12T04:55:05.340Z,1021.76
2017-06-12T04:56:05.341Z,1021.89
2017-06-12T04:57:05.344Z,1021.96
2017-06-12T04:58:05.347Z,1022.01
2017-06-12T04:59:05.348Z,1022.11
2017-06-12T05:00:05.349Z,1022.1
2017-06-12T05:01:05.351Z,1022.18
2017-06-12T05:02:05.354Z,1022.21
2017-06-12T05:03:05.355Z,1022.31
2017-06-12T05:04:05.356Z,1022.31
2017-06-12T05:05:05.358Z,1022.41
2017-06-12T05:06:05.359Z,1022.47
2017-06-12T05:07:05.361Z,1022.51
2017-06-12T05:08:05.362Z,1022.5
2017-06-12T05:09:05.365Z,1022.55
2017-06-12T05:10:05.365Z,1022.55
2017-06-12T05:11:05.366Z,1022.57
2017-06-12T05:12:05.367Z,1022.67
2017-06-12T05:13:05.369Z,1022.62
2017-06-12T05:14:05.368Z,1022.6
2017-06-12T05:15:05.370Z,1022.63
2017-06-12T05:16:05.373Z,1022.5
2017-06-12T05:17:05.373Z,1022.48
2017-06-12T05:18:05.373Z,1022.5
2017-06-12T05:19:05.378Z,1022.43
2017-06-12T05:20:05.376Z,1022.43
2017-06-12T05:21:05.378Z,1022.45
2017-06-12T05:22:05.378Z,1022.44
2017-06-12T05:23:05.379Z,1022.49
2017-06-12T05:24:05.380Z,1022.56
2017-06-12T05:25:05.381Z,1022.55
2017-06-12T05:26:05.381Z,1022.57
2017-06-12T05:27:05.383Z,1022.57
2017-06-12T05:28:05.385Z,1022.7
2017-06-12T05:29:05.385Z,1022.73
2017-06-12T05:30:05.387Z,1022.66
2017-06-12T05:31:05.388Z,1022.8
2017-06-12T05:32:05.389Z,1022.79
2017-06-12T05:33:05.389Z,1022.77
2017-06-12T05:34:05.390Z,1022.7
2017-06-12T05:35:05.391Z,1022.74
2017-06-12T05:36:05.394Z,1022.74
2017-06-12T05:37:05.392Z,1022.79
2017-06-12T05:38:05.395Z,1022.8
2017-06-12T05:39:05.395Z,1022.76
2017-06-12T05:40:05.395Z,1022.72
2017-06-12T05:41:05.396Z,1022.71
2017-06-12T05:42:05.398Z,1022.68
2017-06-12T05:43:05.398Z,1022.7
2017-06-12T05:44:05.399Z,1022.67
2017-06-12T05:45:05.400Z,1022.67
2017-06-12T05:46:05.401Z,1022.67
2017-06-12T05:47:05.401Z,1022.62
2017-06-12T05:48:05.402Z,1022.6
2017-06-12T05:49:05.403Z,1022.61
2017-06-12T05:50:05.404Z,1022.59
2017-06-12T05:51:05.405Z,1022.57
2017-06-12T05:52:05.406Z,1022.52
2017-06-12T05:53:05.407Z,1022.52
2017-06-12T05:54:05.408Z,1022.52
2017-06-12T05:55:05.409Z,1022.48
2017-06-12T05:56:05.410Z,1022.43
2017-06-12T05:57:05.410Z,1022.39
2017-06-12T05:58:05.411Z,1022.32
2017-06-12T05:59:05.412Z,1022.29
2017-06-12T06:00:05.414Z,1022.16
2017-06-12T06:01:05.415Z,1022.21
2017-06-12T06:02:05.414Z,1022.25
2017-06-12T06:03:05.416Z,1022.29
2017-06-12T06:04:05.418Z,1022.41
2017-06-12T06:05:05.420Z,1022.43
2017-06-12T06:06:05.420Z,1022.45
2017-06-12T06:07:05.422Z,1022.42
2017-06-12T06:08:05.423Z,1022.5
2017-06-12T06:09:05.424Z,1022.51
2017-06-12T06:10:05.426Z,1022.44
2017-06-12T06:11:05.427Z,1022.4
2017-06-12T06:12:05.428Z,1022.34
2017-06-12T06:13:05.429Z,1022.36
2017-06-12T06:14:05.432Z,1022.38
2017-06-12T06:15:05.433Z,1022.32
2017-06-12T06:16:05.434Z,1022.37
2017-06-12T06:17:05.437Z,1022.41
2017-06-12T06:18:05.439Z,1022.41
2017-06-12T06:19:05.440Z,1022.44
2017-06-12T06:20:05.441Z,1022.54
2017-06-12T06:21:05.443Z,1022.65
2017-06-12T06:22:05.445Z,1022.69
2017-06-12T06:23:05.448Z,1022.74
2017-06-12T06:24:05.448Z,1022.83
2017-06-12T06:25:05.450Z,1022.92
2017-06-12T06:26:05.451Z,1022.83
2017-06-12T06:27:05.453Z,1022.93
2017-06-12T06:28:05.454Z,1022.94
2017-06-12T06:29:05.456Z,1022.95
2017-06-12T06:30:05.456Z,1022.92
2017-06-12T06:31:05.458Z,1022.92
2017-06-12T06:32:05.460Z,1022.94
2017-06-12T06:33:05.461Z,1022.96
2017-06-12T06:34:05.463Z,1022.76
2017-06-12T06:35:05.465Z,1022.34
2017-06-12T06:36:05.466Z,1022.25
2017-06-12T06:37:05.468Z,1021.8
2017-06-12T06:38:05.469Z,1020.98
2017-06-12T06:39:05.472Z,1020.77
2017-06-12T06:40:05.474Z,1020.7
2017-06-12T06:41:05.477Z,1020.63
2017-06-12T06:42:05.481Z,1020.34
2017-06-12T06:43:05.484Z,1020.37
2017-06-12T06:44:05.488Z,1020.51
2017-06-12T06:45:05.490Z,1020.74
2017-06-12T06:46:05.493Z,1020.98
2017-06-12T06:47:05.498Z,1021.11
2017-06-12T06:48:05.502Z,1021.38
2017-06-12T06:49:05.506Z,1021.45
2017-06-12T06:50:05.509Z,1021.61
2017-06-12T06:51:05.515Z,1021.71
2017-06-12T06:52:05.518Z,1022.02
2017-06-12T06:53:05.521Z,1021.13
2017-06-12T06:54:05.525Z,1020.82
2017-06-12T06:55:05.529Z,1020.7
2017-06-12T06:56:05.534Z,1020.9
2017-06-12T06:57:05.539Z,1020.03
2017-06-12T06:58:05.542Z,1019.88
2017-06-12T06:59:05.548Z,1019.33
2017-06-12T07:00:05.552Z,1019
2017-06-12T07:01:05.557Z,1019.32
2017-06-12T07:02:05.563Z,1019.05
2017-06-12T07:03:05.569Z,1018.41
2017-06-12T07:04:05.576Z,1018.67
2017-06-12T07:05:05.582Z,1019.04
2017-06-12T07:06:05.589Z,1018.51
2017-06-12T07:07:05.597Z,1018.46
2017-06-12T07:08:05.603Z,1018.82
2017-06-12T07:09:05.611Z,1018.93
2017-06-12T07:10:05.619Z,1019.04
2017-06-12T07:11:05.626Z,1019.02
2017-06-12T07:12:05.634Z,1019.83
2017-06-12T07:13:05.644Z,1019.31
2017-06-12T07:14:05.652Z,1018.36
2017-06-12T07:15:05.660Z,1017.62
2017-06-12T07:16:05.668Z,1017.69
2017-06-12T07:17:05.678Z,1017.16
2017-06-12T07:18:05.688Z,1017.46
2017-06-12T07:19:05.697Z,1017.92
2017-06-12T07:20:05.708Z,1018.31
2017-06-12T07:21:05.717Z,1018.76
2017-06-12T07:22:05.727Z,1018.9
2017-06-12T07:23:05.736Z,1018.69
2017-06-12T07:24:05.746Z,1019.18
2017-06-12T07:25:05.756Z,1019.58
2017-06-12T07:26:05.765Z,1019.93
2017-06-12T07:27:05.775Z,1020.73
2017-06-12T07:28:05.785Z,1019.31
2017-06-12T07:29:05.794Z,1019.44
2017-06-12T07:30:05.804Z,1019.77
2017-06-12T07:31:05.813Z,1020.03
2017-06-12T07:32:05.824Z,1020.11
2017-06-12T07:33:05.832Z,1020.3
2017-06-12T07:34:05.841Z,1020.69
2017-06-12T07:35:05.851Z,1020.14
2017-06-12T07:36:05.860Z,1019.88
2017-06-12T07:37:05.869Z,1019.86
2017-06-12T07:38:05.878Z,1019.73
2017-06-12T07:39:05.888Z,1019.73
2017-06-12T07:40:05.897Z,1019.95
2017-06-12T07:41:05.905Z,1019.11
2017-06-12T07:42:05.914Z,1018.77
2017-06-12T07:43:05.924Z,1017.38
2017-06-12T07:44:05.933Z,1018.05
2017-06-12T07:45:05.942Z,1017.41
2017-06-12T07:46:05.952Z,1016.81
2017-06-12T07:47:05.963Z,1017.46
2017-06-12T07:48:05.972Z,1018.06
2017-06-12T07:49:05.983Z,1018.3
2017-06-12T07:50:05.994Z,1018.94
2017-06-12T07:51:06.005Z,1017.51
2017-06-12T07:52:06.016Z,1018.46
2017-06-12T07:53:06.026Z,1018.49
2017-06-12T07:54:06.038Z,1017.54
2017-06-12T07:55:06.048Z,1017.28
2017-06-12T07:56:06.059Z,1016.76
2017-06-12T07:57:06.071Z,1016.48
2017-06-12T07:58:06.083Z,1015.85
2017-06-12T07:59:06.094Z,1017.07
2017-06-12T08:00:06.107Z,1016
2017-06-12T08:01:06.120Z,1016.4
2017-06-12T08:02:06.131Z,1016.44
2017-06-12T08:03:06.144Z,1016.15
2017-06-12T08:04:06.157Z,1016.14
2017-06-12T08:05:06.172Z,1017.38
2017-06-12T08:06:06.183Z,1017.37
2017-06-12T08:07:06.199Z,1016.76
2017-06-12T08:08:06.211Z,1016.64
2017-06-12T08:09:06.225Z,1016.96
2017-06-12T08:10:06.238Z,1016.88
2017-06-12T08:11:06.252Z,1016.19
2017-06-12T08:12:06.266Z,1015.54
2017-06-12T08:13:06.280Z,1016.61
2017-06-12T08:14:06.296Z,1016.91
2017-06-12T08:15:06.310Z,1016.13
2017-06-12T08:16:06.326Z,1015.14
2017-06-12T08:17:06.340Z,1016.37
2017-06-12T08:18:06.355Z,1015.63
2017-06-12T08:19:06.370Z,1014.66
2017-06-12T08:20:06.388Z,1015.37
2017-06-12T08:21:06.401Z,1016.4
2017-06-12T08:22:06.417Z,1015.6
2017-06-12T08:23:06.433Z,1015.1
2017-06-12T08:24:06.448Z,1014.87
2017-06-12T08:25:06.463Z,1014.93
2017-06-12T08:26:06.479Z,1014.94
2017-06-12T08:27:06.496Z,1014.75
2017-06-12T08:28:06.511Z,1014.77
2017-06-12T08:29:06.527Z,1014.81
2017-06-12T08:30:06.544Z,1014.95
2017-06-12T08:31:06.562Z,1014.96
2017-06-12T08:32:06.576Z,1015.82
2017-06-12T08:33:06.593Z,1015.79
2017-06-12T08:34:06.613Z,1016.7
2017-06-12T08:35:06.625Z,1017.14
2017-06-12T08:36:06.641Z,1017.58
2017-06-12T08:37:06.757Z,1018.04
2017-06-12T08:38:06.673Z,1018.52
2017-06-12T08:39:06.687Z,1018.72
2017-06-12T08:40:06.702Z,1019.05
2017-06-12T08:41:06.719Z,1019.24
2017-06-12T08:42:06.731Z,1019.54
2017-06-12T08:43:06.745Z,1019.91
2017-06-12T08:44:06.758Z,1020.18
2017-06-12T08:45:06.771Z,1020.37
2017-06-12T08:46:06.784Z,1020.42
2017-06-12T08:47:06.796Z,1020.56
2017-06-12T08:48:06.808Z,1020.38
2017-06-12T08:49:06.820Z,1019.83
2017-06-12T08:50:06.831Z,1019.64
2017-06-12T08:51:06.844Z,1019.38
2017-06-12T08:52:06.857Z,1019.11
2017-06-12T08:53:06.867Z,1019.07
2017-06-12T08:54:06.878Z,1018.36
2017-06-12T08:55:06.890Z,1018.25
2017-06-12T08:56:06.901Z,1018.62
2017-06-12T08:57:06.912Z,1019.15
2017-06-12T08:58:06.923Z,1019.76
2017-06-12T08:59:06.936Z,1020.07
2017-06-12T09:00:06.947Z,1020.41
2017-06-12T09:01:06.958Z,1020.59
2017-06-12T09:02:06.974Z,1020.87
2017-06-12T09:03:06.980Z,1021
2017-06-12T09:04:06.991Z,1021.22
2017-06-12T09:05:07.001Z,1021.49
2017-06-12T09:06:07.013Z,1021.54
2017-06-12T09:07:07.023Z,1021.54
2017-06-12T09:08:07.032Z,1021.62
2017-06-12T09:09:07.042Z,1021.73
2017-06-12T09:10:07.052Z,1021.83
2017-06-12T09:11:07.062Z,1021.9
2017-06-12T09:12:07.072Z,1021.92
2017-06-12T09:13:07.080Z,1021.97
2017-06-12T09:14:07.089Z,1022.01
2017-06-12T09:15:07.099Z,1021.91
2017-06-12T09:16:07.106Z,1021.8
2017-06-12T09:17:07.115Z,1021.72
2017-06-12T09:18:07.124Z,1021.77
2017-06-12T09:19:07.133Z,1021.79
2017-06-12T09:20:07.140Z,1021.79
2017-06-12T09:21:07.149Z,1021.81
2017-06-12T09:22:07.157Z,1021.9
2017-06-12T09:23:07.167Z,1021.98
2017-06-12T09:24:07.174Z,1021.98
2017-06-12T09:25:07.183Z,1021.93
2017-06-12T09:26:07.190Z,1021.95
2017-06-12T09:27:07.199Z,1021.95
2017-06-12T09:28:07.207Z,1021.99
2017-06-12T09:29:07.216Z,1022.11
2017-06-12T09:30:07.224Z,1022.08
2017-06-12T09:31:07.237Z,1022.26
2017-06-12T09:32:07.239Z,1022.31
2017-06-12T09:33:07.248Z,1022.5
2017-06-12T09:34:07.255Z,1022.66
2017-06-12T09:35:07.262Z,1022.7
2017-06-12T09:36:07.270Z,1022.9
2017-06-12T09:37:07.278Z,1022.8
2017-06-12T09:38:07.285Z,1022.84
2017-06-12T09:39:07.294Z,1022.83
2017-06-12T09:40:07.300Z,1022.73
2017-06-12T09:41:07.306Z,1022.76
2017-06-12T09:42:07.314Z,1022.74
2017-06-12T09:43:07.321Z,1022.84
2017-06-12T09:44:07.329Z,1022.8
2017-06-12T09:45:07.335Z,1022.95
2017-06-12T09:46:07.343Z,1022.92
2017-06-12T09:47:07.350Z,1022.95
2017-06-12T09:48:07.355Z,1023.07
2017-06-12T09:49:07.363Z,1023.18
2017-06-12T09:50:07.370Z,1023.17
2017-06-12T09:51:07.376Z,1023.19
2017-06-12T09:52:07.384Z,1023.12
2017-06-12T09:53:07.390Z,1023.27
2017-06-12T09:54:07.397Z,1023.39
2017-06-12T09:55:07.403Z,1023.44
2017-06-12T09:56:07.409Z,1023.64
2017-06-12T09:57:07.416Z,1023.62
2017-06-12T09:58:07.422Z,1023.64
2017-06-12T09:59:07.428Z,1023.86
2017-06-12T10:00:07.435Z,1023.99
2017-06-12T10:01:07.441Z,1024
2017-06-12T10:02:07.447Z,1024
2017-06-12T10:03:07.452Z,1024.01
2017-06-12T10:04:07.458Z,1024.07
2017-06-12T10:05:07.464Z,1024.16
2017-06-12T10:06:07.470Z,1024.25
2017-06-12T10:07:07.475Z,1024.19
2017-06-12T10:08:07.481Z,1024.27
2017-06-12T10:09:07.489Z,1024.19
2017-06-12T10:10:07.490Z,1024.12
2017-06-12T10:11:07.495Z,1024.04
2017-06-12T10:12:07.503Z,1023.75
2017-06-12T10:13:07.507Z,1023.6
2017-06-12T10:14:07.511Z,1023.76
2017-06-12T10:15:07.518Z,1023.76
2017-06-12T10:16:07.522Z,1023.75
2017-06-12T10:17:07.528Z,1023.77
2017-06-12T10:18:07.532Z,1024.01
2017-06-12T10:19:07.539Z,1024.12
2017-06-12T10:20:07.542Z,1024.21
2017-06-12T10:21:07.548Z,1024.19
2017-06-12T10:22:07.551Z,1024.15
2017-06-12T10:23:07.556Z,1024.23
2017-06-12T10:24:07.562Z,1024.28
2017-06-12T10:25:07.566Z,1024.35
2017-06-12T10:26:07.570Z,1024.37
2017-06-12T10:27:07.575Z,1024.45
2017-06-12T10:28:07.580Z,1024.28
2017-06-12T10:29:07.584Z,1024.13
2017-06-12T10:30:07.588Z,1024.02
2017-06-12T10:31:07.593Z,1023.93
2017-06-12T10:32:07.597Z,1024
2017-06-12T10:33:07.601Z,1024.09
2017-06-12T10:34:07.606Z,1024.17
2017-06-12T10:35:07.610Z,1024.21
2017-06-12T10:36:07.614Z,1024.25
2017-06-12T10:37:07.619Z,1024.31
2017-06-12T10:38:07.624Z,1024.48
2017-06-12T10:39:07.628Z,1024.56
2017-06-12T10:40:07.631Z,1024.56
2017-06-12T10:41:07.635Z,1024.56
2017-06-12T10:42:07.642Z,1024.57
2017-06-12T10:43:07.642Z,1024.51
2017-06-12T10:44:07.647Z,1024.47
2017-06-12T10:45:07.652Z,1024.49
2017-06-12T10:46:07.656Z,1024.57
2017-06-12T10:47:07.659Z,1024.57
2017-06-12T10:48:07.664Z,1024.48
2017-06-12T10:49:07.667Z,1024.47
2017-06-12T10:50:07.672Z,1024.47
2017-06-12T10:51:07.674Z,1024.41
2017-06-12T10:52:07.679Z,1024.46
2017-06-12T10:53:07.683Z,1024.34
2017-06-12T10:54:07.687Z,1024.35
2017-06-12T10:55:07.689Z,1024.26
2017-06-12T10:56:07.695Z,1024.31
2017-06-12T10:57:07.699Z,1024.23
2017-06-12T10:58:07.702Z,1024.25
2017-06-12T10:59:07.708Z,1024.33
2017-06-12T11:00:07.710Z,1024.34
2017-06-12T11:01:07.714Z,1024.37
2017-06-12T11:02:07.718Z,1024.28
2017-06-12T11:03:07.724Z,1024.37
2017-06-12T11:04:07.729Z,1024.37
2017-06-12T11:05:07.731Z,1024.43
2017-06-12T11:06:07.736Z,1024.44
2017-06-12T11:07:07.739Z,1024.53
2017-06-12T11:08:07.744Z,1024.55
2017-06-12T11:09:07.748Z,1024.58
2017-06-12T11:10:07.751Z,1024.68
2017-06-12T11:11:07.756Z,1024.69
2017-06-12T11:12:07.759Z,1024.73
2017-06-12T11:13:07.763Z,1024.67
2017-06-12T11:14:07.767Z,1024.66
2017-06-12T11:15:07.783Z,1024.71
2017-06-12T11:16:07.774Z,1024.85
2017-06-12T11:17:07.779Z,1024.82
2017-06-12T11:18:07.782Z,1024.77
2017-06-12T11:19:07.786Z,1024.82
2017-06-12T11:20:07.789Z,1024.73
2017-06-12T11:21:07.792Z,1024.76
2017-06-12T11:22:07.797Z,1024.68
2017-06-12T11:23:07.800Z,1024.67
2017-06-12T11:24:07.803Z,1024.58
2017-06-12T11:25:07.807Z,1024.4
2017-06-12T11:26:07.813Z,1024.42
2017-06-12T11:27:07.814Z,1024.5
2017-06-12T11:28:07.818Z,1024.47
2017-06-12T11:29:07.821Z,1024.26
2017-06-12T11:30:07.824Z,1024.11
2017-06-12T11:31:07.829Z,1024.01
2017-06-12T11:32:07.833Z,1024.02
2017-06-12T11:33:07.836Z,1023.94
2017-06-12T11:34:07.840Z,1023.87
2017-06-12T11:35:07.844Z,1023.81
2017-06-12T11:36:07.848Z,1023.82
2017-06-12T11:37:07.852Z,1023.88
2017-06-12T11:38:07.855Z,1023.99
2017-06-12T11:39:07.860Z,1023.98
2017-06-12T11:40:07.864Z,1023.88
2017-06-12T11:41:07.869Z,1023.93
2017-06-12T11:42:07.873Z,1023.86
2017-06-12T11:43:07.878Z,1023.87
2017-06-12T11:44:07.882Z,1023.83
2017-06-12T11:45:07.885Z,1023.82
2017-06-12T11:46:07.890Z,1023.63
2017-06-12T11:47:07.897Z,1023.73
2017-06-12T11:48:07.899Z,1023.65
2017-06-12T11:49:07.903Z,1023.59
2017-06-12T11:50:07.908Z,1023.55
2017-06-12T11:51:07.913Z,1023.57
2017-06-12T11:52:07.918Z,1023.54
2017-06-12T11:53:07.922Z,1023.48
2017-06-12T11:54:07.927Z,1023.55
2017-06-12T11:55:07.932Z,1023.59
2017-06-12T11:56:07.936Z,1023.61
2017-06-12T11:57:07.942Z,1023.54
2017-06-12T11:58:07.946Z,1023.47
2017-06-12T11:59:07.952Z,1023.38
2017-06-12T12:00:07.957Z,1023.36
2017-06-12T12:01:07.961Z,1023.19
2017-06-12T12:02:07.967Z,1023.07
2017-06-12T12:03:07.972Z,1023.11
2017-06-12T12:04:07.977Z,1023.12
2017-06-12T12:05:07.983Z,1022.98
2017-06-12T12:06:07.990Z,1023.03
2017-06-12T12:07:07.993Z,1023.04
2017-06-12T12:08:07.998Z,1023.09